x

Western Caribbean - 195 Nm Wsw Of Negril Jamiaca (42057) Wave Buoy

1:50 - Wed 20th Sep 2017 All times are UTC.

  • Sig Wave height 2.0ft
  • Swell Direction
  • Peak Period 7s
  • Average Period 5s
  • Wind
    7mph, 9mph gusts
  • Sea Temp 85°f
  • Air Temp 85°f
  • Sea Pressure 1012.9mb

More Historic Weather Station data

Upgrade to MSW Pro to gain access to the past 30 days of data for over 8000 Wavebouys and Weather Stations around the globe.

Join

Comparision Forecast

View Surf forecast
   
mer. 09/20 1:50 2ft 7s 5s 7 9 mph 1012.9mb 85f 85f
1:40  -   -   -  7 9 mph 1013mb - 85f
1:30  -   -   -  7 9 mph 1012.8mb 85f 85f
1:20  -   -   -  7 9 mph 1012.8mb 85f 85f
1:10  -   -   -  7 9 mph 1012.7mb 85f 85f
1:00  -   -   -  7 9 mph 1012.7mb - 85f
12:50 2ft 6s 5s 7 9 mph 1012.7mb 85f 85f
12:40  -   -   -  7 9 mph 1012.8mb 85f 85f
12:30  -   -   -  7 7 mph 1012.7mb 85f 85f
12:20  -   -   -  4 7 mph 1012.7mb 85f 85f
12:10  -   -   -  4 7 mph 1012.6mb 85f 85f
12:00  -   -   -  4 7 mph 1012.5mb 85f 84f
11:50 2ft 7s 5s 4 7 mph 1012.4mb - 84f
11:40  -   -   -  4 7 mph 1012.4mb 85f 84f
11:30  -   -   -  4 4 mph 1012.4mb 85f 84f
11:20  -   -   -  4 4 mph 1012.4mb 85f 84f
11:10  -   -   -  4 7 mph 1012.4mb 85f 84f
11:00  -   -   -  4 7 mph 1012.4mb 85f 84f
10:50 2ft 7s 5s 4 7 mph 1012.2mb 85f 84f
10:40  -   -   -  4 7 mph 1012.2mb 85f 85f
10:30  -   -   -  4 7 mph 1012.3mb 85f 85f
10:20  -   -   -  7 7 mph 1012.2mb 85f 85f
10:10  -   -   -  7 7 mph 1012.1mb 85f 85f
10:00  -   -   -  7 7 mph 1011.9mb 85f 85f
9:50 2ft 7s 4s 7 9 mph 1011.8mb 85f 85f
9:40 2ft  -  4s 7 9 mph 1011.9mb 85f 85f
9:30  -   -   -  7 9 mph 1011.9mb 85f 85f
9:20  -   -   -  7 9 mph 1011.9mb 85f 85f
9:10  -   -   -  7 9 mph 1011.9mb 85f 85f
9:00  -   -   -  7 9 mph 1012mb 85f 84f
8:50 2ft 7s 4s 2 7 mph 1012.2mb 85f 84f
8:40  -   -   -  2 4 mph 1012.2mb 85f 84f
8:30  -   -   -  2 4 mph 1012.2mb - 84f
8:20  -   -   -  4 7 mph 1012mb - 84f
8:10  -   -   -  2 4 mph 1012mb 85f 84f
8:00  -   -   -  2 4 mph 1012mb 85f 83f
7:50 2ft 7s 5s 2 4 mph 1012.1mb 85f 83f
7:40  -   -   -  2 4 mph 1012mb 85f 84f
7:30  -   -   -  2 4 mph 1012.2mb 85f 83f
7:20  -   -   -  2 2 mph 1012.4mb 85f 83f
7:10  -   -   -  2 4 mph 1012.4mb - 82f
7:00  -   -   -  4 4 mph 1012.4mb - 82f
6:50 2ft 7s 4s  -  2 mph 1012.4mb 85f 81f
6:40 2ft  -  4s 4 11 mph 1012.8mb 85f 80f
6:30  -   -   -  13 38 mph 1012.8mb - 80f
6:20  -   -   -  16 34 mph 1012.7mb 85f 84f
6:10  -   -   -  9 11 mph 1012.9mb 85f 85f
6:00  -   -   -  9 9 mph 1012.9mb - 85f
5:50 2ft 7s 4s 9 11 mph 1013.1mb 86f 85f
5:40  -   -   -  9 11 mph 1013.2mb 86f 85f
5:30  -   -   -  9 11 mph 1013.4mb 86f 85f
5:20  -   -   -  11 13 mph 1013.3mb 86f 85f
5:10  -   -   -  11 13 mph 1013.3mb 86f 85f
5:00  -   -   -  9 11 mph 1013.3mb 86f 85f
4:50 2ft 7s 4s 9 11 mph 1013.4mb 86f 85f
4:40 2ft  -  4s 9 11 mph 1013.3mb 86f 85f
4:30  -   -   -  9 11 mph 1013.3mb 86f 85f
4:20  -   -   -  9 11 mph 1013.3mb 86f 85f
4:10  -   -   -  9 11 mph 1013.3mb 86f 85f
4:00  -   -   -  9 11 mph 1013.5mb 86f 85f
3:50 2ft 7s 4s 11 13 mph 1013.4mb 86f 85f
3:40 2ft  -  4s 11 11 mph 1013.4mb 86f 85f
3:30  -   -   -  9 11 mph 1013.4mb 86f 85f
3:20  -   -   -  9 11 mph 1013.5mb 86f 85f
3:10  -   -   -  11 13 mph 1013.5mb 86f 85f
3:00  -   -   -  9 11 mph 1013.4mb 86f 85f
2:50 2ft 6s 4s 11 13 mph 1013.3mb 86f 85f
2:40  -   -   -  9 11 mph 1013.2mb - 85f
2:30  -   -   -  9 11 mph 1013.2mb 86f 85f
2:20  -   -   -  9 13 mph 1013.2mb 86f 85f
2:10  -   -   -  11 11 mph 1013.1mb 86f 85f
2:00  -   -   -  11 13 mph 1013mb 86f 85f
1:50 2ft 7s 4s 11 13 mph 1013mb 86f 85f
1:40  -   -   -  11 11 mph 1013mb 86f 85f
1:30  -   -   -  11 13 mph 1012.9mb 86f 85f
1:20  -   -   -  11 13 mph 1012.8mb 86f 85f
1:10  -   -   -  11 13 mph 1012.6mb 86f 85f
1:00  -   -   -  13 16 mph 1012.4mb 86f 85f
12:50 2.5ft 6s 4s 11 16 mph 1012.3mb 86f 85f
12:40 2.5ft  -  4s 11 16 mph 1012.1mb 86f 85f
12:30  -   -   -  11 13 mph 1012mb 86f 85f
12:20  -   -   -  11 13 mph 1011.9mb 86f 85f
12:10  -   -   -  11 13 mph 1011.7mb 86f 85f
12:00  -   -   -  11 13 mph 1011.5mb 86f 85f
mar. 09/19 11:50 2.5ft 7s 5s 11 13 mph 1011.3mb 86f 85f
11:40  -   -   -  11 13 mph 1011.2mb 86f 85f
11:30  -   -   -  11 13 mph 1011.1mb 86f 85f
11:20  -   -   -  11 13 mph 1011.1mb 86f 85f
11:10  -   -   -  11 13 mph 1010.9mb 86f 85f
11:00  -   -   -  11 13 mph 1010.8mb 86f 85f
10:50 2.5ft 7s 5s 11 13 mph 1010.7mb 86f 85f
10:40  -   -   -  11 13 mph 1010.6mb 86f 85f
10:30  -   -   -  11 13 mph 1010.5mb 86f 85f
10:20  -   -   -  11 13 mph 1010.4mb 86f 85f
10:10  -   -   -  11 13 mph 1010.4mb 86f 85f
10:00  -   -   -  11 13 mph 1010.3mb 86f 85f
9:50 2.5ft 7s 5s 11 13 mph 1010.4mb 86f 85f
9:40  -   -   -  9 11 mph 1010.5mb 86f 85f
9:30  -   -   -  9 11 mph 1010.5mb 86f 85f
9:20  -   -   -  9 11 mph 1010.5mb 86f 85f
9:10  -   -   -  9 13 mph 1010.5mb 86f 85f
9:00  -   -   -  9 13 mph 1010.4mb 86f 85f
8:50 2.5ft 7s 5s 9 11 mph 1010.5mb 86f 85f
8:40  -   -   -  9 11 mph 1010.5mb 86f 85f
8:30  -   -   -  9 11 mph 1010.5mb - 85f
8:20  -   -   -  9 11 mph 1010.5mb - 85f
8:10  -   -   -  7 11 mph 1010.5mb 86f 85f
8:00  -   -   -  7 9 mph 1010.5mb 86f 85f
7:50 2.5ft 7s 5s 7 9 mph 1010.5mb 86f 85f
7:40 2.5ft  -  5s 7 9 mph 1010.5mb 86f 85f
7:30  -   -   -  7 9 mph 1010.5mb - 85f
7:20  -   -   -  4 7 mph 1010.6mb 86f 85f
7:10  -   -   -  7 9 mph 1010.5mb 86f 85f
7:00  -   -   -  7 9 mph 1010.8mb 86f 85f
6:50 3ft 6s 5s 7 9 mph 1010.9mb 86f 85f
6:40  -   -   -  9 11 mph 1011.1mb 86f 85f
6:30  -   -   -  9 11 mph 1011.4mb 86f 85f
6:20  -   -   -  9 13 mph 1011.7mb 86f 85f
6:10  -   -   -  11 13 mph 1011.9mb 86f 85f
6:00  -   -   -  11 13 mph 1012.1mb 86f 85f
5:50 3ft 7s 4s 11 13 mph 1012.1mb 86f 84f
5:40 3ft  -  4s 11 16 mph 1012.3mb 86f 85f
5:30  -   -   -  11 13 mph 1012.4mb 86f 85f
5:20  -   -   -  11 13 mph 1012.6mb 86f 85f
5:10  -   -   -  13 18 mph 1012.9mb 86f 84f
5:00  -   -   -  13 16 mph 1013mb 86f 84f
4:50 3ft 7s 4s 13 16 mph 1013mb 86f 85f
4:40  -   -   -  13 16 mph 1013mb - 85f
4:30  -   -   -  13 16 mph 1013mb - 85f
4:20  -   -   -  13 16 mph 1013mb 86f 84f
4:10  -   -   -  11 16 mph 1013.2mb 86f 84f
4:00  -   -   -  11 13 mph 1013.4mb 86f 84f
3:50 2.5ft 7s 4s 11 13 mph 1013.6mb 86f 84f
3:40  -   -   -  13 16 mph 1013.6mb 86f 84f
3:30  -   -   -  11 16 mph 1013.6mb 86f 83f
3:20  -   -   -  7 9 mph 1013.8mb 86f 83f
3:10  -   -   -  7 9 mph 1013.8mb 86f 82f
3:00  -   -   -  7 9 mph 1013.6mb 86f 82f
2:50 2.5ft 6s 5s 7 7 mph 1013.6mb 86f 82f
2:40  -   -   -  4 7 mph 1013.7mb 86f 82f
2:30  -   -   -  7 11 mph 1013.6mb 86f 82f
2:20  -   -   -  7 11 mph 1013.7mb 86f 82f
2:10  -   -   -  7 9 mph 1013.8mb 86f 82f
2:00  -   -   -  7 9 mph 1013.8mb 86f 82f
1:50 2.5ft 7s 4s 7 11 mph 1013.7mb 86f 80f
1:40 2.5ft  -  4s 11 13 mph 1013.6mb 86f 80f
1:30  -   -   -  20 34 mph 1013.6mb 86f 81f
1:20  -   -   -  22 34 mph 1013.3mb 86f 83f
1:10  -   -   -  9 13 mph 1013.3mb 86f 85f
1:00  -   -   -  9 11 mph 1013.3mb 86f 85f
12:50 2.5ft 6s 5s 9 13 mph 1013mb 86f 85f
12:40 2.5ft  -  5s 11 13 mph 1013mb 86f 85f
12:30  -   -   -  11 13 mph 1013mb - 85f
12:20  -   -   -  11 13 mph 1013mb 86f 85f
12:10  -   -   -  11 16 mph 1012.8mb 86f 85f
12:00  -   -   -  11 13 mph 1012.7mb 86f 85f
11:50 2.5ft 6s 5s 11 13 mph 1012.6mb 86f 85f
11:40  -   -   -  11 13 mph 1012.5mb 86f 85f
11:30  -   -   -  11 13 mph 1012.4mb 86f 85f
11:20  -   -   -  9 13 mph 1012.4mb 86f 85f
11:10  -   -   -  9 13 mph 1012.4mb 86f 85f
11:00  -   -   -  11 16 mph 1012.3mb 86f 85f
10:50 2.5ft 7s 5s 11 16 mph 1012mb 86f 85f
10:40  -   -   -  11 13 mph 1012mb 86f 85f
10:30  -   -   -  11 16 mph 1011.9mb 86f 84f
10:20  -   -   -  11 13 mph 1011.7mb - 84f
10:10  -   -   -  11 13 mph 1011.6mb 86f 84f
10:00  -   -   -  11 13 mph 1011.5mb 86f 84f
9:50 2.5ft 8s 5s 9 13 mph 1011.4mb 86f 84f
9:40 2.5ft  -  5s 9 11 mph 1011.4mb 86f 84f
9:30  -   -   -  9 11 mph 1011.1mb 86f 83f
9:20  -   -   -  9 11 mph 1010.9mb 86f 84f
9:10  -   -   -  9 11 mph 1010.8mb 86f 83f
9:00  -   -   -  9 11 mph 1010.9mb 86f 84f
8:50 2.5ft 8s 5s 9 11 mph 1011.1mb 86f 84f
8:40 2.5ft  -  5s 9 11 mph 1010.9mb 86f 84f
8:30  -   -   -  9 11 mph 1010.8mb 86f 84f
8:20  -   -   -  9 13 mph 1010.8mb 86f 84f
8:10  -   -   -  9 11 mph 1010.7mb 86f 84f
8:00  -   -   -  9 11 mph 1010.7mb 86f 84f
7:50 2.5ft 7s 5s 9 11 mph 1010.8mb 86f 84f
7:40 2.5ft  -  5s 9 11 mph 1010.8mb 86f 84f
7:30  -   -   -  9 13 mph 1011.1mb 86f 84f
7:20  -   -   -  9 11 mph 1011.3mb 86f 84f
7:10  -   -   -  9 11 mph 1011.5mb 86f 84f
7:00  -   -   -  9 11 mph 1011.6mb 86f 84f
6:50 3.5ft 7s 5s 9 11 mph 1011.6mb 86f 84f
6:40  -   -   -  9 11 mph 1011.6mb 86f 84f
6:30  -   -   -  9 11 mph 1011.7mb 86f 84f
6:20  -   -   -  9 11 mph 1011.8mb 86f 84f
6:10  -   -   -  9 11 mph 1011.9mb 86f 84f
6:00  -   -   -  7 9 mph 1011.9mb 86f 84f
5:50 3.5ft 8s 5s 7 9 mph 1011.8mb - 84f
5:40  -   -   -  7 9 mph 1011.9mb 86f 84f
5:30  -   -   -  4 7 mph 1012mb - 84f
5:20  -   -   -  4 7 mph 1012mb 86f 84f
5:10  -   -   -  7 9 mph 1012.1mb 86f 84f
5:00  -   -   -  4 9 mph 1012.1mb 86f -
4:50 3.5ft 6s 5s 7 9 mph 1012.1mb 86f 84f
4:40 3.5ft  -  5s 7 9 mph 1012.2mb 86f 84f
4:30  -   -   -  7 9 mph 1012.2mb - 84f
4:20  -   -   -  9 9 mph 1012.2mb 86f 84f
4:10  -   -   -  9 11 mph 1012.1mb 86f 83f
4:00  -   -   -  9 11 mph 1012.1mb 86f 83f
3:50 3.5ft 6s 5s 9 11 mph 1012.2mb 86f 84f
3:40  -   -   -  9 11 mph 1012.2mb 86f 83f
3:30  -   -   -  7 11 mph 1012.2mb 86f 83f
3:20  -   -   -  7 9 mph 1012.2mb 86f 83f
3:10  -   -   -  7 9 mph 1012.2mb 86f 83f
3:00  -   -   -  7 9 mph 1012.1mb 86f 83f
2:50 4ft 6s 5s 7 11 mph 1011.9mb 86f 83f
2:40 4ft  -  5s 7 9 mph 1011.9mb 86f 83f
2:30  -   -   -  7 9 mph 1011.7mb 86f 83f
2:20  -   -   -  4 7 mph 1011.7mb 86f 83f
2:10  -   -   -  2 4 mph 1011.7mb 86f 83f
2:00  -   -   -  2 4 mph 1011.6mb 86f 83f
1:50 4ft 5s 5s 4 7 mph 1011.4mb 86f 83f
1:40 4ft  -  5s 4 7 mph 1011.2mb 86f 83f
1:30  -   -   -  4 7 mph 1011mb 86f 83f
1:20  -   -   -  2 4 mph 1010.8mb - 83f
1:10  -   -   -  4 7 mph 1010.8mb 86f 83f
1:00  -   -   -  4 7 mph 1010.8mb - 82f
12:50 4.5ft 5s 5s 4 7 mph 1010.8mb 86f 83f
12:40 4.5ft  -  5s 4 7 mph 1010.5mb 86f 82f
12:30  -   -   -  7 9 mph 1010.5mb 86f 83f
12:20  -   -   -  7 9 mph 1010.6mb 86f 83f
12:10  -   -   -  9 11 mph 1010.7mb 86f 83f
12:00  -   -   -  9 11 mph 1010.5mb 86f 83f
lun. 09/18 11:50 4.5ft 5s 5s 7 11 mph 1010.6mb 86f 83f
11:40  -   -   -  9 13 mph 1010.5mb 86f 83f
11:30  -   -   -  11 13 mph 1010.6mb 86f 83f
11:20  -   -   -  13 18 mph 1010.5mb 86f 83f
11:10  -   -   -  16 18 mph 1010.5mb 86f 83f
11:00  -   -   -  16 20 mph 1010.5mb 86f 83f
10:50 4.5ft 6s 5s 16 20 mph 1010.6mb 86f 83f
10:40  -   -   -  16 20 mph 1010.8mb 86f 83f
10:30  -   -   -  18 20 mph 1010.8mb 86f 83f
10:20  -   -   -  18 22 mph 1010.8mb 86f 83f
10:10  -   -   -  18 22 mph 1010.6mb 86f 83f
10:00  -   -   -  18 22 mph 1010.6mb 86f 83f
9:50 4.5ft 5s 5s 18 22 mph 1010.6mb 86f 83f
9:40 4.5ft  -  5s 18 22 mph 1010.5mb 86f 84f
9:30  -   -   -  18 22 mph 1010.4mb 86f 84f
9:20  -   -   -  18 22 mph 1010.3mb 86f 83f
9:10  -   -   -  18 22 mph 1010.3mb 86f 83f
9:00  -   -   -  18 22 mph 1010.3mb 86f 83f
8:50 4.5ft 5s 4s 18 22 mph 1010.2mb 86f 83f
8:40 4.5ft  -  4s 18 22 mph 1010.3mb 86f 83f
8:30  -   -   -  20 22 mph 1010.2mb 86f 83f
8:20  -   -   -  18 25 mph 1010.3mb 86f 83f
8:10  -   -   -  16 20 mph 1010.4mb 86f 83f
8:00  -   -   -  18 20 mph 1010.5mb 86f 83f
7:50 4ft 8s 5s 18 20 mph 1010.7mb 86f 83f
7:40  -   -   -  18 22 mph 1010.7mb 86f 83f
7:30  -   -   -  18 22 mph 1010.8mb 86f 83f
7:20  -   -   -  18 22 mph 1010.8mb 86f 83f
7:10  -   -   -  18 22 mph 1010.9mb 86f 83f
7:00  -   -   -  16 22 mph 1011mb 86f 83f
6:50 4ft 7s 5s 16 20 mph 1011.1mb 86f 82f
6:40  -   -   -  13 18 mph 1011.2mb 86f 82f
6:30  -   -   -  16 20 mph 1011.1mb 86f 82f
6:20  -   -   -  18 20 mph 1011.1mb 86f 82f
6:10  -   -   -  16 20 mph 1010.9mb 86f 82f
6:00  -   -   -  16 18 mph 1011mb 86f 82f
5:50 4ft 7s 5s 16 18 mph 1011.2mb 86f 82f
5:40  -   -   -  16 18 mph 1011.4mb 86f 81f
5:30  -   -   -  16 20 mph 1011.6mb 86f 82f
5:20  -   -   -  18 22 mph 1011.8mb 86f 82f
5:10  -   -   -  16 20 mph 1011.8mb 86f 81f
5:00  -   -   -  18 20 mph 1012.1mb 86f -
4:50 4.5ft 8s 5s 18 20 mph 1012.2mb 86f 80f
4:40 4.5ft  -  5s 20 27 mph 1012.3mb 86f 80f
4:30  -   -   -  16 25 mph 1012.7mb 86f 82f
4:20  -   -   -  13 16 mph 1013.1mb 86f 81f
4:10  -   -   -  11 16 mph 1013mb 86f 81f
4:00  -   -   -  11 13 mph 1013.2mb 86f 82f
3:50 4.5ft 6s 5s 11 13 mph 1013.3mb 86f 82f
3:40 4.5ft  -  5s 9 13 mph 1013.1mb 86f 82f
3:30  -   -   -  7 11 mph 1013.1mb 86f 81f
3:20  -   -   -  7 11 mph 1013.3mb 86f 80f
3:10  -   -   -  9 11 mph 1013.6mb 86f 79f
3:00  -   -   -  11 16 mph 1013.5mb 86f 79f
2:50 4.5ft 8s 5s 9 13 mph 1013.3mb 86f 79f
2:40 4.5ft  -  5s 18 27 mph 1013.4mb 86f 79f
2:30  -   -   -  27 36 mph 1012.8mb 86f 81f
2:20  -   -   -  16 29 mph 1012.9mb 86f 85f
2:10  -   -   -  9 11 mph 1012.5mb 86f 85f
2:00  -   -   -  4 9 mph 1012.8mb 86f 85f
1:50 4.5ft 8s 5s 4 7 mph 1012.7mb 86f 85f
1:40 4.5ft  -  5s 7 7 mph 1012.4mb 86f 84f
1:30  -   -   -  7 9 mph 1012.4mb 86f 84f
1:20  -   -   -  7 9 mph 1012.5mb 86f 84f
1:10  -   -   -  7 9 mph 1012.3mb 86f 83f
1:00  -   -   -  4 9 mph 1012.2mb - 83f
12:50 4.5ft 7s 5s 4 7 mph 1012.2mb 86f 82f
12:40  -   -   -  4 7 mph 1012.1mb 86f 81f
12:30  -   -   -  7 9 mph 1012mb 86f 80f
12:20  -   -   -  7 13 mph 1011.9mb 86f 79f
12:10  -   -   -  13 22 mph 1012mb 86f 81f
12:00  -   -   -  9 20 mph 1011.7mb 86f 83f
11:50 4.5ft 8s 6s 2 4 mph 1011.5mb 86f 84f
11:40  -   -   -  2 4 mph 1011.2mb 86f 84f
11:30  -   -   -  4 9 mph 1011.1mb 86f 84f
11:20  -   -   -  7 9 mph 1010.8mb 86f 84f
11:10  -   -   -  4 4 mph 1010.8mb 86f 84f
11:00  -   -   -  2 4 mph 1010.8mb 86f 83f
10:50 4.5ft 8s 5s 4 7 mph 1010.6mb 86f 83f
10:40  -   -   -  2 4 mph 1010.5mb 86f 83f
10:30  -   -   -  2 4 mph 1010.4mb 86f 82f
10:20  -   -   -  4 7 mph 1010.5mb 86f 82f
10:10  -   -   -  7 9 mph 1010.5mb 86f 82f
10:00  -   -   -  7 11 mph 1010.3mb 86f 80f
9:50 4.5ft  -  5s 9 13 mph 1010.1mb 86f 79f
9:40 4.5ft 7s  -   -  mph - - -
9:30  -   -   -  11 25 mph 1010.3mb 86f 85f
9:20  -   -   -  7 9 mph 1010.3mb 86f 85f
9:10  -   -   -  7 9 mph 1010mb 86f 85f
9:00  -   -   -  7 11 mph 1009.9mb 86f 85f
8:50 3.5ft 7s 5s 9 11 mph 1010.2mb 86f 85f
8:40  -   -   -  9 11 mph 1010.3mb 86f 85f
8:30  -   -   -  7 9 mph 1010.5mb 86f 85f
8:20  -   -   -  7 9 mph 1010.5mb 86f 85f
8:10  -   -   -  7 9 mph 1010.5mb 86f 85f
8:00  -   -   -  7 11 mph 1010.5mb 86f 85f
7:50 3.5ft 7s 5s 9 11 mph 1010.5mb 86f 85f
7:40  -   -   -  11 13 mph 1010.5mb 86f 85f
7:30  -   -   -  11 13 mph 1010.5mb 86f 86f
7:20  -   -   -  11 16 mph 1010.8mb 86f 86f
7:10  -   -   -  11 16 mph 1010.8mb 86f 86f
7:00  -   -   -  13 16 mph 1011mb 86f 86f
6:50 3.5ft 8s 5s 13 16 mph 1011.1mb 86f 86f
6:40  -   -   -  13 16 mph 1011.1mb 86f 85f
6:30  -   -   -  9 16 mph 1011mb 86f 85f
6:20  -   -   -  7 11 mph 1011.1mb 86f 85f
6:10  -   -   -  7 11 mph 1011.3mb 86f 85f
6:00  -   -   -  9 11 mph 1011.6mb 86f 85f
5:50 3.5ft 8s 5s 9 13 mph 1011.7mb 86f 85f
5:40  -   -   -  11 16 mph 1011.8mb 86f 85f
5:30  -   -   -  13 16 mph 1011.9mb 86f 85f
5:20  -   -   -  11 16 mph 1012mb 86f 85f
5:10  -   -   -  13 16 mph 1012.3mb 86f 85f
5:00  -   -   -  13 16 mph 1012.3mb 86f 85f
4:50 3.5ft 7s 4s 16 18 mph 1012.2mb 86f 83f
4:40  -   -   -  20 25 mph 1012.2mb 86f 84f
4:30  -   -   -  16 22 mph 1012.4mb - 86f
4:20  -   -   -  16 20 mph 1012.4mb 86f 86f
4:10  -   -   -  16 18 mph 1012.5mb 86f 86f
4:00  -   -   -  16 18 mph 1012.4mb 86f 86f
3:50 3.5ft 7s 5s 16 18 mph 1012.4mb 86f 86f
3:40 3.5ft  -  5s 16 20 mph 1012.4mb 86f 86f
3:30  -   -   -  16 20 mph 1012.4mb 86f 86f
3:20  -   -   -  16 18 mph 1012.2mb 86f 86f
3:10  -   -   -  16 18 mph 1012.2mb 86f 86f
3:00  -   -   -  16 18 mph 1012.2mb 86f 86f
2:50 3ft 8s  -  16 20 mph 1012.2mb - 86f
2:40  -   -   -  13 18 mph 1012.2mb 86f 86f
2:30  -   -   -  16 18 mph 1012.1mb 86f 86f
2:20  -   -   -  16 20 mph 1012.1mb 86f 86f
2:10  -   -   -  16 20 mph 1012mb - 86f
2:00  -   -   -  16 20 mph 1011.9mb 87f 86f
1:50 2.5ft 6s 4s 16 18 mph 1011.7mb 87f 86f
1:40 2.5ft  -  4s 13 18 mph 1011.7mb 87f 86f
1:30  -   -   -  16 18 mph 1011.5mb 87f 86f
1:20  -   -   -  16 18 mph 1011.3mb 87f 86f
1:10  -   -   -  16 18 mph 1011.1mb 87f 86f
1:00  -   -   -  16 18 mph 1011.1mb 87f 86f
12:50 3ft 7s 4s 16 18 mph 1011.1mb 87f 86f
12:40 3ft  -  4s 16 18 mph 1010.8mb 87f 86f
12:30  -   -   -  13 18 mph 1010.8mb 87f 86f
12:20  -   -   -  16 18 mph 1010.6mb 87f 86f
12:10  -   -   -  13 18 mph 1010.5mb 87f 86f
12:00  -   -   -  13 16 mph 1010.5mb 87f 86f
dim. 09/17 11:50 3ft 6s 4s 13 18 mph 1010.3mb 87f 86f
11:40  -   -   -  13 16 mph 1010.1mb 87f 86f
11:30  -   -   -  13 18 mph 1010mb 87f 86f
11:20  -   -   -  13 16 mph 1010mb 87f 86f
11:10  -   -   -  13 18 mph 1010mb 87f 86f
11:00  -   -   -  13 18 mph 1009.8mb 87f 86f
10:50 3ft 7s 5s 13 16 mph 1009.9mb 87f 86f
10:40  -   -   -  11 16 mph 1009.8mb 87f 86f
10:30  -   -   -  13 16 mph 1009.7mb 87f 86f
10:20  -   -   -  13 18 mph 1009.6mb 87f 86f
10:10  -   -   -  13 16 mph 1009.5mb 87f 85f
10:00  -   -   -  13 18 mph 1009.6mb 87f 86f
9:50 3ft 7s 4s 13 16 mph 1009.6mb 87f 87f
9:40  -   -   -  11 13 mph 1009.6mb 87f 87f
9:30  -   -   -  11 13 mph 1009.5mb 87f 87f
9:20  -   -   -  13 16 mph 1009.5mb 87f 87f
9:10  -   -   -  13 16 mph 1009.5mb 87f 87f
9:00  -   -   -  11 16 mph 1009.5mb 87f 87f
8:50 3.5ft 7s 5s 11 13 mph 1009.5mb 87f 87f
8:40  -   -   -  11 13 mph 1009.4mb - 87f
8:30  -   -   -  11 13 mph 1009.5mb 87f 86f
8:20  -   -   -  11 13 mph 1009.5mb 87f 86f
8:10  -   -   -  11 13 mph 1009.6mb 87f 86f
8:00  -   -   -  11 13 mph 1009.8mb 87f 86f
7:50 3ft 5s 4s 11 13 mph 1009.9mb 87f 86f
7:40  -   -   -  11 16 mph 1010mb 87f 86f
7:30  -   -   -  13 16 mph 1010.1mb 87f 86f
7:20  -   -   -  11 16 mph 1010.2mb 87f 86f
7:10  -   -   -  11 13 mph 1010.4mb 87f 86f
7:00  -   -   -  11 13 mph 1010.5mb 87f 86f
6:50 3ft 6s 4s 11 13 mph 1010.7mb - 86f
6:40 3ft  -  4s 11 16 mph 1010.8mb 87f 86f
6:30  -   -   -  11 13 mph 1010.9mb 87f 86f
6:20  -   -   -  11 13 mph 1011.1mb 87f 86f
6:10  -   -   -  11 16 mph 1011.3mb 87f 86f
6:00  -   -   -  13 16 mph 1011.4mb 87f 86f
5:50 3ft 6s 4s 13 16 mph 1011.4mb 87f 86f
5:40 3ft  -  4s 13 16 mph 1011.5mb 87f 86f
5:30  -   -   -  13 16 mph 1011.6mb 87f 86f
5:20  -   -   -  13 16 mph 1011.6mb 87f 86f
5:10  -   -   -  13 16 mph 1011.7mb 87f 86f
5:00  -   -   -  13 16 mph 1011.9mb 87f 86f
4:50 3ft 5s 4s 13 16 mph 1012.1mb 87f 86f
4:40  -   -   -  13 18 mph 1012.3mb 87f 86f
4:30  -   -   -  13 18 mph 1012.4mb 87f 86f
4:20  -   -   -  13 16 mph 1012.4mb 87f 86f
4:10  -   -   -  13 16 mph 1012.5mb 87f 86f
4:00  -   -   -  13 18 mph 1012.5mb 87f 86f
3:50 3ft 5s 4s 11 16 mph 1012.5mb 87f 86f
3:40  -   -   -  11 13 mph 1012.5mb 87f 85f
3:30  -   -   -  11 13 mph 1012.7mb - 85f
3:20  -   -   -  11 13 mph 1012.7mb 87f 85f
3:10  -   -   -  11 13 mph 1012.5mb 87f 85f
3:00  -   -   -  11 13 mph 1012.5mb 87f 85f
2:50 2.5ft 5s 4s 13 16 mph 1012.4mb 87f 85f
2:40 2.5ft  -  4s 13 16 mph 1012.4mb 87f 85f
2:30  -   -   -  11 16 mph 1012.4mb 87f 85f
2:20  -   -   -  13 16 mph 1012.3mb 87f 84f
2:10  -   -   -  13 16 mph 1012.3mb 87f 84f
2:00  -   -   -  13 16 mph 1012.2mb 87f 84f
1:50 3ft 6s 4s 13 18 mph 1012.1mb - 83f
1:40  -   -   -  13 16 mph 1011.8mb 87f 83f
1:30  -   -   -  13 18 mph 1011.7mb 87f 83f
1:20  -   -   -  13 18 mph 1011.7mb 87f 83f
1:10  -   -   -  13 16 mph 1011.7mb 87f 83f
1:00  -   -   -  13 18 mph 1011.7mb 87f 83f
12:50 3ft 5s 4s 16 18 mph 1011.7mb 87f 83f
12:40  -   -   -  16 20 mph 1011.6mb 87f 82f
12:30  -   -   -  16 20 mph 1011.6mb 87f 82f
12:20  -   -   -  16 22 mph 1011.6mb 87f 82f
12:10  -   -   -  16 18 mph 1011.6mb 87f 82f
12:00  -   -   -  16 20 mph 1011.4mb 86f 82f
11:50 3ft 6s 4s 16 20 mph 1011.2mb - 81f
11:40 3ft  -  4s 18 22 mph 1010.9mb 86f 81f
11:30  -   -   -  20 25 mph 1011mb 86f 81f
11:20  -   -   -  18 22 mph 1011.2mb 86f 82f
11:10  -   -   -  20 22 mph 1011.3mb 86f 82f
11:00  -   -   -  16 20 mph 1011.1mb 86f 83f
10:50 3ft 4s 4s 18 20 mph 1011.2mb 86f 83f
10:40 3ft  -  4s 13 20 mph 1011.4mb 86f 82f
10:30  -   -   -  7 11 mph 1011.4mb - 81f
10:20  -   -   -  7 9 mph 1011.1mb 86f 81f
10:10  -   -   -  2 7 mph 1010.9mb 86f 80f
10:00  -   -   -  2 4 mph 1010.8mb 86f 80f
9:50 3.5ft 6s 4s 2 4 mph 1010.8mb 86f 79f
9:40 3.5ft  -  4s 2 7 mph 1010.8mb 86f 78f
9:30  -   -   -  2 4 mph 1011mb 86f 78f
9:20  -   -   -  7 20 mph 1010.9mb 86f 78f
9:10  -   -   -  25 36 mph 1011.1mb 86f 79f
9:00  -   -   -  29 36 mph 1010.8mb 86f 81f
8:50 2.5ft 5s 4s 18 29 mph 1010.7mb 86f 84f
8:40 2.5ft  -  4s 7 9 mph 1010.4mb 86f 84f
8:30  -   -   -  7 11 mph 1010.3mb 86f 84f
8:20  -   -   -  9 11 mph 1010.4mb 86f 84f
8:10  -   -   -  9 11 mph 1010.2mb 86f 83f
8:00  -   -   -  11 13 mph 1010.3mb 86f 83f
7:50 2.5ft 5s 4s 13 18 mph 1010.3mb 86f 84f
7:40  -   -   -  16 20 mph 1010.1mb 86f 84f
7:30  -   -   -  16 20 mph 1010.4mb 86f 85f
7:20  -   -   -  11 13 mph 1010.5mb 86f 86f
7:10  -   -   -  11 13 mph 1010.5mb 86f 86f
7:00  -   -   -  11 13 mph 1010.6mb 86f 86f
6:50 2.5ft  -  4s 13 16 mph 1010.7mb 86f 86f
6:40 2.5ft 5s 4s  -  mph - - -
6:30  -   -   -  11 13 mph 1010.9mb 86f 86f
6:20  -   -   -  11 13 mph 1010.9mb - 86f
6:10  -   -   -  13 16 mph 1011.1mb 86f 86f
6:00  -   -   -  13 16 mph 1011.3mb 87f 86f
5:50 2.5ft 4s 4s 13 16 mph 1011.5mb 87f 86f
5:40  -   -   -  13 18 mph 1011.6mb 86f 86f
5:30  -   -   -  16 18 mph 1011.7mb 86f 86f
5:20  -   -   -  16 18 mph 1011.9mb 86f 86f
5:10  -   -   -  13 18 mph 1011.9mb 86f 86f
5:00  -   -   -  11 13 mph 1012mb 86f 86f
4:50 2.5ft 4s 4s 13 16 mph 1012mb 86f 86f
4:40  -   -   -  13 16 mph 1012.1mb 86f 86f
4:30  -   -   -  13 16 mph 1012mb 86f 86f
4:20  -   -   -  13 16 mph 1012.2mb 86f 86f
4:10  -   -   -  13 16 mph 1012.3mb 86f 86f
4:00  -   -   -  13 18 mph 1012.2mb 86f 86f
3:50 2.5ft 5s 4s 13 16 mph 1012.2mb 86f 86f
3:40  -   -   -  16 18 mph 1012.4mb 86f 86f
3:30  -   -   -  16 18 mph 1012.4mb 86f 86f
3:20  -   -   -  16 18 mph 1012.3mb 86f 86f
3:10  -   -   -  13 16 mph 1012.3mb 86f 86f
3:00  -   -   -  11 13 mph 1012.2mb 86f 86f
2:50 2ft 5s 4s 11 16 mph 1012.2mb 86f 86f
2:40 2ft  -  4s 13 16 mph 1012.2mb 86f 86f
2:30  -   -   -  11 16 mph 1012mb 86f 86f
2:20  -   -   -  11 16 mph 1012.1mb 86f 86f
2:10  -   -   -  11 13 mph 1012mb - 86f
2:00  -   -   -  11 13 mph 1011.9mb 86f 86f
1:50 2ft 4s 4s 11 16 mph 1011.8mb 86f 86f
1:40 2ft  -  4s 11 13 mph 1011.6mb 86f 86f
1:30  -   -   -  13 13 mph 1011.4mb 86f 86f
1:20  -   -   -  11 16 mph 1011.2mb 86f 86f
1:10  -   -   -  11 16 mph 1011.1mb 86f 86f
1:00  -   -   -  11 13 mph 1010.9mb 86f 86f
12:50 2ft 4s 4s 11 13 mph 1010.8mb 86f 86f
12:40  -   -   -  11 13 mph 1010.7mb 86f 86f
12:30  -   -   -  11 13 mph 1010.5mb 87f 86f
12:20  -   -   -  11 13 mph 1010.3mb 87f 86f
12:10  -   -   -  13 16 mph 1010.2mb 87f 86f
12:00  -   -   -  11 16 mph 1010.1mb 87f 86f
sam. 09/16 11:50 2ft 5s 4s 13 16 mph 1010.1mb 87f 86f
11:40  -   -   -  11 16 mph 1009.9mb 87f 86f
11:30  -   -   -  11 13 mph 1009.8mb 87f 86f
11:20  -   -   -  11 13 mph 1009.7mb 87f 86f
11:10  -   -   -  11 13 mph 1009.8mb 87f 86f
11:00  -   -   -  11 16 mph 1009.7mb 87f 86f
10:50 1.6ft 5s 4s 11 13 mph 1009.6mb 87f 86f
10:40  -   -   -  11 16 mph 1009.5mb 87f 86f
10:30  -   -   -  13 13 mph 1009.5mb 87f 86f
10:20  -   -   -  11 13 mph 1009.3mb 87f 86f
10:10  -   -   -  13 16 mph 1009.3mb 87f 86f
10:00  -   -   -  13 13 mph 1009.3mb 87f 86f
9:50 1.6ft 5s 4s 11 13 mph 1009.2mb 87f 86f
9:40  -   -   -  9 11 mph 1009.2mb 87f 85f
9:30  -   -   -  7 11 mph 1009.2mb 87f 84f
9:20  -   -   -  9 13 mph 1009.2mb 87f 85f
9:10  -   -   -  9 11 mph 1009.2mb 87f 86f
9:00  -   -   -  11 13 mph 1009.2mb 87f 86f
8:50 1.6ft 5s 3s 9 11 mph 1009.2mb 87f 86f
8:40 1.6ft  -  3s 11 16 mph 1009.3mb 87f 86f
8:30  -   -   -  13 16 mph 1009.5mb - 86f
8:20  -   -   -  11 16 mph 1009.5mb 87f 86f
8:10  -   -   -  11 13 mph 1009.5mb 87f 86f
8:00  -   -   -  11 13 mph 1009.6mb 87f 86f
7:50 1.6ft 4s 3s 11 13 mph 1009.7mb 87f 86f
7:40  -   -   -  11 13 mph 1009.9mb 87f 86f
7:30  -   -   -  11 13 mph 1009.9mb 87f 86f
7:20  -   -   -  11 13 mph 1010.1mb 87f 86f
7:10  -   -   -  13 16 mph 1010.2mb 87f 86f
7:00  -   -   -  13 16 mph 1010.4mb 87f 86f
6:50 1.3ft 5s 4s 9 13 mph 1010.4mb 87f 85f
6:40  -   -   -  9 11 mph 1010.5mb 87f 85f
6:30  -   -   -  9 11 mph 1010.6mb 87f 85f
6:20  -   -   -  11 13 mph 1010.6mb 87f 85f
6:10  -   -   -  13 20 mph 1010.6mb 87f 85f
6:00  -   -   -  13 16 mph 1010.9mb 87f 86f
5:50 1.3ft 5s 4s 9 11 mph 1011.2mb 87f 86f
5:40  -   -   -  9 11 mph 1011.3mb 87f 86f
5:30  -   -   -  9 11 mph 1011.3mb 87f 86f
5:20  -   -   -  9 11 mph 1011.4mb 87f 86f
5:10  -   -   -  9 11 mph 1011.6mb 87f 86f
5:00  -   -   -  9 11 mph 1011.7mb 87f 86f
4:50 1.3ft 5s 4s 9 11 mph 1011.7mb 87f 86f
4:40  -   -   -  9 11 mph 1011.9mb 87f 86f
4:30  -   -   -  9 11 mph 1012mb - 85f
4:20  -   -   -  9 11 mph 1012mb 87f 86f
4:10  -   -   -  9 9 mph 1012.1mb 87f 85f
4:00  -   -   -  7 9 mph 1012.2mb - 85f
3:50 1.3ft 5s 4s 9 11 mph 1012.2mb 87f 85f
3:40  -   -   -  7 9 mph 1012.2mb 87f 85f
3:30  -   -   -  7 9 mph 1012.1mb - 85f
3:20  -   -   -  9 9 mph 1012.1mb 87f 85f
3:10  -   -   -  7 9 mph 1012.1mb 87f 85f
3:00  -   -   -  7 9 mph 1012mb 87f 85f
2:50 1.3ft 4s 4s 7 11 mph 1012mb 87f 85f